Airfield :
LOGIN :

Register | Disclaimer

   EN    FR    IT 

 










Legend :    VFR   Marginal VFR   IFR   Intensive IFR   Very Intensive IFR
Visi :
Ceiling :
>= 8 km
>= 3000ft
5 to 8 km
1000 to 3000 ft
1500m to 5 km
500 to 1000 ft
800 to 1500m
200 to 500 ft
< 800m
< 200 ft
Symbols :   Thunderstorms  Fog  Heavy snow  Heavy precipitations  Wind > 20 kt
SIGMETs :     Misc.  Thunderstorms  Icing  Turbulence  Mountain Waves  Volcanic Ashes






- Airport Elevation : 12 ft
- IATA code : BCN


LEBL - Barcelone

CURRENT METAR :
  • 042100Z 30002KT 9000 FEW011 12/10 Q1020 NOSIG

EXPIRED METARs :
  • 042030Z 23002KT 9000 FEW010 12/10 Q1020 NOSIG
  • 042000Z 20002KT 9000 FEW009 13/11 Q1020 NOSIG
  • 041930Z 20002KT 9999 FEW011 SCT015 13/11 Q1020 NOSIG
  • 041900Z 20003KT 9999 FEW011 SCT015 13/10 Q1020 NOSIG
  • 041830Z 21002KT 9999 FEW012 13/11 Q1020 NOSIG

TAF TAF LEBL
Valid from the 04 at 18:00 until the 05 at 18:00 UTC


041700Z 0418/0518 21007KT 9999 FEW014 TX16/0512Z TN08/0506Z
TEMPO 0418/0422 VRB04KT
BECMG 0422/0424 34006KT
BECMG 0510/0512 20007KT



MET'MAP, your aeronautical weather chart ! - Copyright ORBIFLY December 2007 - Disclaimer

ORBIFLY MET'MAP TEAM :

Programming & Development : Alexandra Zaïnal
Concept & original design : Baudouin d'Aumeries
Assistance for programming : Marc-Olivier Méhu
Technical & hardware support : Manuel Goepfert

Contact : metmap@orbifly.com




SOURCES & CREDITS :

   NOAA